Time;durP1;ratioP1;P1;durP2;ratioP2;P2;SDS_P1;SDS_P2;PMS_P1;PMS_P2;Temp;Humidity;BMP_temperature;BMP_pressure;BME280_temperature;BME280_humidity;BME280_pressure;Samples;Min_cycle;Max_cycle;Signal;HPM_P1;HPM_P2
2023/04/25 00:01:13;;;;;;;31.98;7.15;;;7.20;99.90;;;;;;5088124;28;20515;-80
2023/04/25 00:03:39;;;;;;;11.85;7.25;;;7.10;99.90;;;;;;5088266;28;20069;-79
2023/04/25 00:06:06;;;;;;;38.75;8.93;;;7.10;99.90;;;;;;5087986;28;20082;-79
2023/04/25 00:08:32;;;;;;;21.60;8.50;;;7.10;99.90;;;;;;5088206;28;20044;-79
2023/04/25 00:10:58;;;;;;;22.92;9.35;;;7.10;99.90;;;;;;5082559;28;20119;-80
2023/04/25 00:13:25;;;;;;;31.83;9.07;;;7.00;99.90;;;;;;5080722;28;20040;-80
2023/04/25 00:15:52;;;;;;;23.27;8.48;;;7.10;99.90;;;;;;5087926;28;20052;-80
2023/04/25 00:18:19;;;;;;;29.50;8.82;;;7.10;99.90;;;;;;5086152;28;20097;-80
2023/04/25 00:20:46;;;;;;;30.42;8.35;;;7.10;99.90;;;;;;5088045;28;20052;-80
2023/04/25 00:23:18;;;;;;;25.27;8.95;;;7.10;99.90;;;;;;5070642;28;20086;-80
2023/04/25 00:25:49;;;;;;;24.42;9.63;;;7.10;99.90;;;;;;5094481;28;20044;-80
2023/04/25 00:28:15;;;;;;;21.58;8.55;;;7.10;99.90;;;;;;5081443;28;20039;-80
2023/04/25 00:30:42;;;;;;;24.17;8.65;;;7.00;99.90;;;;;;5079578;28;20059;-80
2023/04/25 00:33:08;;;;;;;23.85;9.00;;;7.00;99.90;;;;;;5116057;27;20489;-80
2023/04/25 00:35:34;;;;;;;25.77;8.82;;;7.00;99.90;;;;;;5087269;28;20416;-80
2023/04/25 00:38:00;;;;;;;20.10;8.50;;;7.00;99.90;;;;;;5086770;28;20055;-80
2023/04/25 00:40:26;;;;;;;23.77;8.65;;;6.90;99.90;;;;;;5086969;28;20087;-80
2023/04/25 00:42:52;;;;;;;28.23;8.93;;;6.90;99.90;;;;;;5084057;28;20044;-80
2023/04/25 00:45:18;;;;;;;26.90;9.45;;;6.90;99.90;;;;;;5079672;28;20454;-80
2023/04/25 00:47:44;;;;;;;24.13;8.65;;;6.80;99.90;;;;;;5109806;27;20044;-80
2023/04/25 00:50:10;;;;;;;24.27;8.68;;;6.80;99.90;;;;;;5081246;28;20473;-80
2023/04/25 00:52:44;;;;;;;39.20;10.30;;;6.80;99.90;;;;;;5078182;28;20093;-80
2023/04/25 00:55:12;;;;;;;31.98;9.45;;;6.80;99.90;;;;;;5076143;28;20055;-80
2023/04/25 00:57:38;;;;;;;24.20;9.30;;;6.70;99.90;;;;;;5080954;28;20542;-80
2023/04/25 01:00:06;;;;;;;37.83;10.48;;;6.70;99.90;;;;;;5085347;28;20052;-80
2023/04/25 01:02:33;;;;;;;25.65;9.00;;;6.70;99.90;;;;;;5107606;27;20040;-80
2023/04/25 01:04:58;;;;;;;24.80;8.77;;;6.70;99.90;;;;;;5116733;27;20037;-80
2023/04/25 01:07:24;;;;;;;24.15;8.38;;;6.70;99.90;;;;;;5078638;28;20051;-80
2023/04/25 01:09:51;;;;;;;22.10;8.98;;;6.70;99.90;;;;;;5073711;28;20493;-80
2023/04/25 01:12:17;;;;;;;23.23;8.73;;;6.70;99.90;;;;;;5099805;28;20102;-80
2023/04/25 01:14:43;;;;;;;29.83;9.57;;;6.70;99.90;;;;;;5086937;28;20048;-80
2023/04/25 01:17:11;;;;;;;26.67;7.88;;;6.70;99.90;;;;;;5087389;28;20109;-80
2023/04/25 01:19:37;;;;;;;23.90;8.43;;;6.70;99.90;;;;;;5079146;28;20040;-80
2023/04/25 01:22:03;;;;;;;25.05;9.00;;;6.60;99.90;;;;;;5078801;28;20101;-80
2023/04/25 01:24:31;;;;;;;38.17;10.38;;;6.60;99.90;;;;;;5078651;28;20082;-80
2023/04/25 01:26:58;;;;;;;18.80;8.05;;;6.60;99.90;;;;;;5085994;28;20051;-80
2023/04/25 01:29:25;;;;;;;26.70;8.35;;;6.60;99.90;;;;;;5084291;28;20097;-80
2023/04/25 01:31:52;;;;;;;28.40;10.60;;;6.60;99.90;;;;;;5078403;28;20501;-80
2023/04/25 01:34:18;;;;;;;33.42;7.88;;;6.60;99.90;;;;;;5080869;28;20123;-80
2023/04/25 01:36:44;;;;;;;24.70;8.73;;;6.60;99.90;;;;;;5115821;27;20494;-80
2023/04/25 01:39:10;;;;;;;25.90;9.65;;;6.60;99.90;;;;;;5082668;28;20071;-79
2023/04/25 01:41:36;;;;;;;26.45;8.93;;;6.60;99.90;;;;;;5107890;27;20045;-80
2023/04/25 01:44:02;;;;;;;27.52;8.57;;;6.50;99.90;;;;;;5077441;28;20051;-80
2023/04/25 01:46:28;;;;;;;27.90;8.73;;;6.50;99.90;;;;;;5086390;28;20085;-80
2023/04/25 01:48:54;;;;;;;22.17;8.75;;;6.50;99.90;;;;;;5084286;28;20547;-80
2023/04/25 01:51:20;;;;;;;24.73;8.45;;;6.50;99.90;;;;;;5079817;28;20040;-80
2023/04/25 01:53:46;;;;;;;22.77;9.52;;;6.40;99.90;;;;;;5082008;28;20051;-80
2023/04/25 01:56:13;;;;;;;37.10;9.18;;;6.40;99.90;;;;;;5086109;28;20040;-80
2023/04/25 01:58:38;;;;;;;24.10;8.75;;;6.40;99.90;;;;;;5085211;28;20136;-80
2023/04/25 02:01:04;;;;;;;18.52;8.13;;;6.30;99.90;;;;;;5085539;28;20078;-81
2023/04/25 02:03:31;;;;;;;25.10;8.02;;;6.30;99.90;;;;;;5087513;28;20032;-80
2023/04/25 02:05:57;;;;;;;29.17;8.77;;;6.30;99.90;;;;;;5083304;28;20500;-80
2023/04/25 02:08:23;;;;;;;27.60;7.85;;;6.30;99.90;;;;;;5114787;27;20048;-80
2023/04/25 02:10:48;;;;;;;19.27;6.90;;;6.20;99.90;;;;;;5084542;28;20409;-80
2023/04/25 02:13:14;;;;;;;24.25;8.70;;;6.20;99.90;;;;;;5085373;28;20051;-80
2023/04/25 02:15:40;;;;;;;29.63;7.70;;;6.20;99.90;;;;;;5118159;28;20046;-80
2023/04/25 02:18:06;;;;;;;17.42;7.45;;;6.20;99.90;;;;;;5084458;28;20055;-80
2023/04/25 02:20:32;;;;;;;17.25;7.80;;;6.20;99.90;;;;;;5084918;28;20040;-80
2023/04/25 02:22:58;;;;;;;30.88;9.45;;;6.20;99.90;;;;;;5115359;27;20117;-80
2023/04/25 02:25:24;;;;;;;34.80;9.68;;;6.20;99.90;;;;;;5093079;28;20082;-80
2023/04/25 02:27:51;;;;;;;20.50;7.53;;;6.20;99.90;;;;;;5088712;28;20052;-80
2023/04/25 02:30:16;;;;;;;27.15;8.20;;;6.20;99.90;;;;;;5089127;28;20051;-80
2023/04/25 02:32:42;;;;;;;20.40;8.73;;;6.20;99.90;;;;;;5086222;28;20697;-80
2023/04/25 02:35:08;;;;;;;19.40;8.35;;;6.20;99.90;;;;;;5089160;28;20083;-80
2023/04/25 02:37:38;;;;;;;23.25;8.32;;;6.10;99.90;;;;;;5085504;28;20052;-80
2023/04/25 02:40:05;;;;;;;27.92;9.57;;;6.20;99.90;;;;;;5118331;27;20055;-80
2023/04/25 02:42:31;;;;;;;22.05;7.60;;;6.10;99.90;;;;;;5088143;28;20052;-80
2023/04/25 02:44:56;;;;;;;21.45;8.57;;;6.10;99.90;;;;;;5088540;28;20044;-80
2023/04/25 02:47:22;;;;;;;24.05;8.10;;;6.10;99.90;;;;;;5082506;28;20059;-80
2023/04/25 02:49:49;;;;;;;20.63;7.72;;;6.10;99.90;;;;;;5089178;28;20050;-80
2023/04/25 02:52:15;;;;;;;16.73;7.32;;;6.10;99.90;;;;;;5088011;28;20052;-80
2023/04/25 02:54:40;;;;;;;22.02;8.23;;;6.10;99.90;;;;;;5086081;28;20045;-80
2023/04/25 02:57:07;;;;;;;25.50;8.88;;;6.10;99.90;;;;;;5086866;28;20093;-80
2023/04/25 02:59:33;;;;;;;28.63;7.72;;;6.10;99.90;;;;;;5086737;28;20051;-80
2023/04/25 03:01:58;;;;;;;26.83;8.65;;;6.10;99.90;;;;;;5109741;27;20048;-80
2023/04/25 03:04:24;;;;;;;26.60;8.05;;;6.10;99.90;;;;;;5088948;28;20040;-80
2023/04/25 03:06:51;;;;;;;32.13;7.47;;;6.10;99.90;;;;;;5088912;28;20101;-80
2023/04/25 03:09:16;;;;;;;30.98;7.70;;;6.00;99.90;;;;;;5088496;28;20064;-80
2023/04/25 03:11:44;;;;;;;17.85;7.43;;;6.10;99.90;;;;;;5085598;28;20048;-80
2023/04/25 03:14:10;;;;;;;20.85;6.85;;;6.00;99.90;;;;;;5085158;28;20585;-80
2023/04/25 03:16:36;;;;;;;19.55;7.50;;;6.00;99.90;;;;;;5086512;28;20055;-80
2023/04/25 03:19:02;;;;;;;29.90;7.65;;;6.00;99.90;;;;;;5083882;28;20136;-80
2023/04/25 03:21:28;;;;;;;19.42;6.88;;;6.00;99.90;;;;;;5088173;28;20040;-80
2023/04/25 03:23:54;;;;;;;22.60;7.75;;;6.00;99.90;;;;;;5090985;28;20429;-80
2023/04/25 03:26:20;;;;;;;16.98;6.88;;;6.00;99.90;;;;;;5088701;28;20056;-80
2023/04/25 03:28:46;;;;;;;21.67;6.90;;;6.00;99.90;;;;;;5084927;28;20678;-80
2023/04/25 03:31:11;;;;;;;21.80;7.63;;;6.00;99.90;;;;;;5106791;27;20037;-80
2023/04/25 03:33:37;;;;;;;19.00;7.53;;;6.00;99.90;;;;;;5087351;28;20052;-80
2023/04/25 03:36:03;;;;;;;23.65;6.82;;;6.00;99.90;;;;;;5070150;28;20047;-80
2023/04/25 03:38:29;;;;;;;15.88;6.45;;;6.00;99.90;;;;;;5087613;28;20048;-80
2023/04/25 03:40:56;;;;;;;21.58;6.30;;;5.90;99.90;;;;;;5087715;28;20043;-80
2023/04/25 03:43:22;;;;;;;17.77;6.50;;;6.00;99.90;;;;;;5086030;28;20051;-80
2023/04/25 03:45:48;;;;;;;14.93;6.68;;;6.00;99.90;;;;;;5084933;28;20106;-80
2023/04/25 03:48:14;;;;;;;24.25;6.18;;;5.90;99.90;;;;;;5061558;28;20048;-80
2023/04/25 03:50:40;;;;;;;32.10;8.30;;;6.00;99.90;;;;;;5084783;28;20056;-78
2023/04/25 03:53:05;;;;;;;25.48;7.35;;;5.90;99.90;;;;;;5080954;28;20052;-80
2023/04/25 03:55:31;;;;;;;22.27;7.18;;;5.90;99.90;;;;;;5077508;28;20094;-80
2023/04/25 03:57:58;;;;;;;19.00;5.68;;;5.90;99.90;;;;;;5075080;28;20110;-80
2023/04/25 04:00:25;;;;;;;24.50;7.07;;;5.90;99.90;;;;;;5088911;28;20040;-81
2023/04/25 04:02:50;;;;;;;23.15;6.65;;;6.00;99.90;;;;;;5081842;28;20144;-80
2023/04/25 04:05:16;;;;;;;29.30;6.93;;;5.90;99.90;;;;;;5078150;28;20116;-81
2023/04/25 04:07:42;;;;;;;24.00;7.03;;;5.90;99.90;;;;;;5086259;28;20063;-80
2023/04/25 04:10:10;;;;;;;34.58;8.18;;;5.90;99.90;;;;;;5080233;28;20047;-81
2023/04/25 04:12:36;;;;;;;21.30;6.45;;;5.90;99.90;;;;;;5068916;28;20148;-81
2023/04/25 04:15:03;;;;;;;24.52;6.22;;;5.90;99.90;;;;;;5085846;28;20135;-81
2023/04/25 04:17:30;;;;;;;12.60;5.83;;;5.90;99.90;;;;;;5057711;28;20055;-80
2023/04/25 04:19:56;;;;;;;16.20;5.90;;;5.90;99.90;;;;;;5080123;28;20134;-80
2023/04/25 04:22:22;;;;;;;23.42;6.70;;;5.90;99.90;;;;;;5079890;28;20072;-81
2023/04/25 04:24:49;;;;;;;22.02;6.45;;;5.90;99.90;;;;;;5087625;28;20043;-80
2023/04/25 04:27:19;;;;;;;17.60;6.05;;;5.90;99.90;;;;;;5078669;28;20497;-80
2023/04/25 04:29:46;;;;;;;11.73;4.88;;;5.90;99.90;;;;;;5119639;27;20085;-80
2023/04/25 04:32:13;;;;;;;24.38;7.32;;;5.90;99.90;;;;;;5081447;28;20048;-80
2023/04/25 04:34:39;;;;;;;32.80;7.28;;;5.90;99.90;;;;;;5086985;28;20424;-80
2023/04/25 04:37:05;;;;;;;20.02;6.20;;;5.90;99.90;;;;;;5086554;28;20036;-81
2023/04/25 04:39:31;;;;;;;28.85;7.03;;;5.90;99.90;;;;;;5080626;28;20131;-81
2023/04/25 04:41:56;;;;;;;29.10;5.93;;;6.00;99.90;;;;;;5077214;28;20552;-79
2023/04/25 04:44:22;;;;;;;13.73;5.15;;;6.00;99.90;;;;;;5075540;28;20063;-79
2023/04/25 04:46:48;;;;;;;23.85;6.35;;;6.00;99.90;;;;;;5086004;28;20599;-79
2023/04/25 04:49:14;;;;;;;14.48;5.15;;;6.00;99.90;;;;;;5062351;28;20151;-79
2023/04/25 04:51:41;;;;;;;16.92;5.85;;;6.00;99.90;;;;;;5085324;28;20105;-79
2023/04/25 04:54:06;;;;;;;14.27;5.15;;;6.00;99.90;;;;;;5079856;28;20055;-80
2023/04/25 04:56:32;;;;;;;14.02;6.00;;;6.00;99.90;;;;;;5081016;28;20689;-80
2023/04/25 04:58:58;;;;;;;16.30;5.90;;;5.90;99.90;;;;;;5078075;28;20151;-79
2023/04/25 05:01:26;;;;;;;17.23;5.43;;;6.00;99.90;;;;;;5084565;28;20040;-79
2023/04/25 05:03:52;;;;;;;18.60;4.97;;;6.30;99.90;;;;;;5068685;28;20044;-79
2023/04/25 05:06:20;;;;;;;15.68;5.65;;;6.90;99.90;;;;;;5076311;28;20306;-80
2023/04/25 05:08:46;;;;;;;9.57;4.85;;;7.50;99.90;;;;;;5086930;28;20044;-80
2023/04/25 05:11:12;;;;;;;14.98;4.45;;;8.10;99.90;;;;;;5085357;28;20157;-79
2023/04/25 05:13:37;;;;;;;10.02;4.00;;;8.70;99.90;;;;;;5085390;28;20046;-80
2023/04/25 05:16:03;;;;;;;14.90;4.53;;;9.20;99.90;;;;;;5081612;28;20059;-80
2023/04/25 05:18:29;;;;;;;11.05;4.20;;;9.70;99.90;;;;;;5111813;27;20538;-80
2023/04/25 05:20:56;;;;;;;16.08;4.28;;;10.20;99.90;;;;;;5076798;28;20382;-80
2023/04/25 05:23:23;;;;;;;8.15;2.95;;;10.70;99.90;;;;;;5073829;28;20516;-80
2023/04/25 05:25:49;;;;;;;9.13;3.40;;;11.20;99.90;;;;;;5111267;27;20127;-80
2023/04/25 05:28:15;;;;;;;7.50;3.80;;;11.60;99.90;;;;;;5079188;28;20075;-80
2023/04/25 05:30:42;;;;;;;9.38;3.50;;;11.80;99.90;;;;;;5073090;28;20540;-78
2023/04/25 05:33:07;;;;;;;13.27;3.83;;;12.00;99.90;;;;;;5072069;28;20424;-80
2023/04/25 05:35:33;;;;;;;17.92;4.40;;;12.20;99.90;;;;;;5074937;28;20044;-81
2023/04/25 05:37:59;;;;;;;8.02;3.85;;;12.30;99.90;;;;;;5084015;28;20082;-79
2023/04/25 05:40:24;;;;;;;30.42;4.72;;;12.40;99.90;;;;;;5078103;28;20047;-81
2023/04/25 05:42:50;;;;;;;9.13;4.68;;;11.80;99.90;;;;;;5071763;28;20056;-81
2023/04/25 05:45:17;;;;;;;17.00;4.10;;;11.40;99.90;;;;;;5073836;28;20119;-81
2023/04/25 05:47:43;;;;;;;11.88;3.42;;;10.80;99.90;;;;;;5071794;28;20045;-81
2023/04/25 05:50:09;;;;;;;14.65;4.53;;;10.10;99.90;;;;;;5074416;28;20040;-80
2023/04/25 05:52:34;;;;;;;20.05;4.32;;;9.50;99.90;;;;;;5068566;28;20060;-80
2023/04/25 05:55:00;;;;;;;14.73;4.18;;;9.00;99.90;;;;;;5097734;28;20051;-80
2023/04/25 05:57:26;;;;;;;14.93;4.28;;;8.60;99.90;;;;;;5086264;28;20075;-80
2023/04/25 05:59:53;;;;;;;13.00;4.07;;;8.30;99.90;;;;;;5078184;28;20480;-81
2023/04/25 06:02:20;;;;;;;15.27;5.35;;;8.00;99.90;;;;;;5083722;28;20039;-82
2023/04/25 06:04:46;;;;;;;11.87;4.70;;;7.80;99.90;;;;;;5076842;28;20048;-80
2023/04/25 06:07:12;;;;;;;21.30;5.32;;;7.70;99.90;;;;;;5077951;28;20044;-81
2023/04/25 06:09:39;;;;;;;14.00;4.45;;;7.60;99.90;;;;;;5067248;28;20070;-81
2023/04/25 06:12:06;;;;;;;12.48;4.05;;;7.90;99.90;;;;;;5075610;28;20155;-81
2023/04/25 06:14:35;;;;;;;17.58;5.35;;;8.10;99.90;;;;;;5074619;28;20051;-81
2023/04/25 06:17:06;;;;;;;17.45;4.25;;;8.30;99.90;;;;;;5078464;28;20548;-81
2023/04/25 06:19:32;;;;;;;27.48;4.78;;;8.30;99.90;;;;;;5072880;28;20048;-82
2023/04/25 06:21:58;;;;;;;18.63;4.55;;;8.50;99.90;;;;;;5079320;28;20052;-81
2023/04/25 06:24:24;;;;;;;11.82;4.07;;;8.60;99.90;;;;;;5078228;28;20049;-81
2023/04/25 06:26:50;;;;;;;14.07;5.18;;;8.80;99.90;;;;;;5069178;28;20052;-81
2023/04/25 06:29:17;;;;;;;12.50;4.15;;;8.80;99.90;;;;;;5075760;28;20049;-81
2023/04/25 06:31:43;;;;;;;17.47;5.17;;;8.70;99.90;;;;;;5083312;28;20904;-81
2023/04/25 06:34:08;;;;;;;9.30;4.20;;;8.70;99.90;;;;;;5070715;28;20298;-81
2023/04/25 06:36:34;;;;;;;18.80;5.05;;;8.70;99.90;;;;;;5107485;28;20102;-80
2023/04/25 06:39:00;;;;;;;17.08;4.32;;;8.70;99.90;;;;;;5081040;28;20551;-81
2023/04/25 06:41:26;;;;;;;15.65;5.60;;;8.80;99.90;;;;;;5082811;28;20052;-81
2023/04/25 06:43:52;;;;;;;14.52;4.50;;;8.80;99.90;;;;;;5073530;28;20055;-81
2023/04/25 06:46:18;;;;;;;11.10;3.80;;;8.80;99.90;;;;;;5079971;28;20051;-81
2023/04/25 06:48:44;;;;;;;13.88;4.93;;;8.80;99.90;;;;;;5081343;28;20400;-81
2023/04/25 06:51:10;;;;;;;11.30;3.85;;;8.90;99.90;;;;;;5076003;28;20089;-81
2023/04/25 06:53:36;;;;;;;15.10;4.53;;;9.00;99.90;;;;;;5071645;28;20051;-81
2023/04/25 06:56:03;;;;;;;15.23;4.72;;;9.20;99.90;;;;;;5079684;28;20522;-81
2023/04/25 06:58:28;;;;;;;15.15;4.97;;;9.20;99.90;;;;;;5113546;28;20051;-81
2023/04/25 07:00:54;;;;;;;14.27;3.90;;;9.30;99.90;;;;;;5076537;28;20098;-81
2023/04/25 07:03:20;;;;;;;13.25;3.78;;;9.40;99.90;;;;;;5113092;28;20062;-81
2023/04/25 07:05:46;;;;;;;19.92;4.70;;;9.60;99.90;;;;;;5080912;28;20439;-80
2023/04/25 07:08:12;;;;;;;20.30;5.40;;;9.80;99.90;;;;;;5085987;28;20044;-80
2023/04/25 07:10:37;;;;;;;10.80;4.10;;;10.00;99.90;;;;;;5076986;28;20057;-81
2023/04/25 07:13:03;;;;;;;11.75;3.55;;;10.20;99.90;;;;;;5077399;28;20182;-80
2023/04/25 07:15:29;;;;;;;13.50;3.38;;;10.40;99.90;;;;;;5082323;28;20044;-81
2023/04/25 07:17:55;;;;;;;15.43;3.85;;;10.60;99.90;;;;;;5081334;28;20054;-81
2023/04/25 07:20:20;;;;;;;13.18;4.78;;;10.80;99.90;;;;;;5067869;28;20106;-81
2023/04/25 07:22:46;;;;;;;11.48;3.33;;;11.00;99.90;;;;;;5072666;28;20046;-80
2023/04/25 07:25:12;;;;;;;12.43;3.58;;;11.00;99.90;;;;;;5082543;28;20051;-82
2023/04/25 07:27:39;;;;;;;11.07;3.80;;;11.00;99.90;;;;;;5119243;27;20079;-80
2023/04/25 07:30:05;;;;;;;10.35;3.58;;;11.10;99.90;;;;;;5082548;28;20089;-80
2023/04/25 07:32:31;;;;;;;8.27;3.53;;;10.90;99.90;;;;;;5078602;28;20048;-80
2023/04/25 07:34:57;;;;;;;16.45;4.40;;;10.80;99.90;;;;;;5084650;28;20507;-81
2023/04/25 07:37:23;;;;;;;13.32;3.88;;;10.60;99.90;;;;;;5113055;27;20390;-81
2023/04/25 07:39:49;;;;;;;12.88;4.07;;;10.70;99.90;;;;;;5080612;28;20051;-81
2023/04/25 07:42:14;;;;;;;10.57;3.90;;;10.70;99.90;;;;;;5069521;28;20040;-82
2023/04/25 07:44:40;;;;;;;8.20;3.42;;;10.70;99.90;;;;;;5082181;28;20040;-81
2023/04/25 07:47:10;;;;;;;7.80;2.53;;;10.50;99.90;;;;;;5080552;28;20063;-79
2023/04/25 07:49:37;;;;;;;11.73;3.35;;;10.20;99.90;;;;;;5082145;28;20101;-80
2023/04/25 07:52:05;;;;;;;9.35;2.75;;;10.00;99.90;;;;;;5082358;28;20048;-81
2023/04/25 07:54:30;;;;;;;13.80;3.53;;;9.80;99.90;;;;;;5074541;28;20052;-80
2023/04/25 07:56:57;;;;;;;11.25;3.05;;;9.70;99.90;;;;;;5103945;27;20409;-80
2023/04/25 07:59:23;;;;;;;21.08;4.07;;;9.70;99.90;;;;;;5076770;28;20520;-80
2023/04/25 08:01:49;;;;;;;10.95;3.17;;;9.90;99.90;;;;;;5084773;28;20056;-80
2023/04/25 08:04:14;;;;;;;16.50;4.95;;;10.20;99.90;;;;;;5085651;28;20062;-81
2023/04/25 08:06:40;;;;;;;9.70;3.75;;;10.20;99.90;;;;;;5111516;27;20442;-82
2023/04/25 08:09:06;;;;;;;6.43;2.35;;;10.20;99.90;;;;;;5077277;28;20473;-81
2023/04/25 08:11:32;;;;;;;9.98;3.65;;;10.30;99.90;;;;;;5087105;28;20126;-80
2023/04/25 08:13:58;;;;;;;15.30;2.53;;;10.30;99.90;;;;;;5071806;28;20135;-81
2023/04/25 08:16:23;;;;;;;12.80;3.40;;;10.50;99.90;;;;;;5106287;27;20051;-81
2023/04/25 08:18:50;;;;;;;7.70;2.58;;;10.50;99.90;;;;;;5077724;28;20047;-81
2023/04/25 08:21:15;;;;;;;13.75;3.30;;;10.60;99.90;;;;;;5081409;28;20048;-81
2023/04/25 08:23:41;;;;;;;7.05;2.90;;;10.60;99.90;;;;;;5077637;28;20121;-80
2023/04/25 08:26:09;;;;;;;6.55;2.72;;;10.70;99.90;;;;;;5116903;27;20576;-80
2023/04/25 08:28:34;;;;;;;10.48;2.75;;;10.70;99.90;;;;;;5082932;28;20443;-81
2023/04/25 08:31:00;;;;;;;9.63;3.03;;;10.70;99.90;;;;;;5087119;28;20048;-81
2023/04/25 08:33:26;;;;;;;5.38;3.10;;;10.60;99.90;;;;;;5084430;28;20049;-81
2023/04/25 08:35:52;;;;;;;15.30;3.45;;;10.60;99.90;;;;;;5083984;28;20504;-81
2023/04/25 08:38:18;;;;;;;4.97;2.83;;;10.70;99.90;;;;;;5078835;28;20043;-82
2023/04/25 08:40:44;;;;;;;13.45;3.35;;;10.70;99.90;;;;;;5077217;28;20401;-81
2023/04/25 08:43:14;;;;;;;12.52;3.28;;;10.60;99.90;;;;;;5076846;28;20055;-81
2023/04/25 08:45:42;;;;;;;7.53;2.92;;;10.50;99.90;;;;;;5082124;28;20051;-81
2023/04/25 08:48:12;;;;;;;13.83;3.30;;;10.50;99.90;;;;;;5086616;28;20147;-81
2023/04/25 08:50:54;;;;;;;7.63;2.53;;;10.50;99.90;;;;;;5085525;28;20419;-80
2023/04/25 08:53:28;;;;;;;8.00;2.40;;;10.80;99.90;;;;;;5075504;28;20064;-81
2023/04/25 08:55:55;;;;;;;7.40;2.38;;;10.90;99.90;;;;;;5077039;28;20513;-81
2023/04/25 08:58:21;;;;;;;11.18;2.75;;;10.80;99.90;;;;;;5084716;28;20047;-82
2023/04/25 09:00:49;;;;;;;11.90;3.30;;;10.80;99.80;;;;;;5079761;28;20048;-81
2023/04/25 09:03:16;;;;;;;12.45;2.60;;;11.00;99.90;;;;;;5083401;28;20044;-81
2023/04/25 09:05:42;;;;;;;21.95;2.92;;;11.10;99.90;;;;;;5080534;28;20540;-82
2023/04/25 09:08:08;;;;;;;5.72;1.73;;;11.20;98.60;;;;;;5083080;28;20090;-81
2023/04/25 09:10:34;;;;;;;7.47;1.98;;;11.00;98.90;;;;;;5085843;28;20071;-82
2023/04/25 09:13:14;;;;;;;5.72;1.92;;;10.70;99.90;;;;;;5079140;28;20048;-82
2023/04/25 09:15:51;;;;;;;3.80;1.98;;;10.30;99.90;;;;;;5083797;28;20056;-81
2023/04/25 09:18:29;;;;;;;6.63;2.00;;;10.00;99.90;;;;;;5082883;28;20105;-82
2023/04/25 09:21:04;;;;;;;8.45;2.63;;;9.90;99.90;;;;;;5079744;28;20052;-82
2023/04/25 09:23:29;;;;;;;6.30;1.88;;;9.80;99.90;;;;;;5080825;28;20056;-83
2023/04/25 09:25:56;;;;;;;4.55;2.10;;;9.70;99.90;;;;;;5088586;28;20046;-82
2023/04/25 09:28:27;;;;;;;10.88;2.35;;;9.80;99.90;;;;;;5114487;27;20439;-82
2023/04/25 09:31:00;;;;;;;5.60;2.40;;;9.90;99.90;;;;;;5111153;27;20083;-82
2023/04/25 09:33:30;;;;;;;3.15;2.00;;;10.10;99.90;;;;;;5085863;28;20048;-82
2023/04/25 09:36:07;;;;;;;7.53;2.33;;;10.30;99.90;;;;;;5057894;28;20043;-83
2023/04/25 09:38:41;;;;;;;5.38;1.73;;;10.40;99.90;;;;;;5073461;28;20404;-82
2023/04/25 09:41:09;;;;;;;4.95;2.10;;;10.50;99.90;;;;;;5115187;27;20848;-82
2023/04/25 09:43:34;;;;;;;5.15;1.65;;;10.60;99.90;;;;;;5073988;28;20051;-82
2023/04/25 09:46:00;;;;;;;8.85;2.40;;;10.60;99.90;;;;;;5083747;28;20047;-83
2023/04/25 09:48:27;;;;;;;6.38;2.03;;;10.60;99.90;;;;;;5110163;27;20128;-84
2023/04/25 09:51:13;;;;;;;8.60;2.38;;;10.80;99.90;;;;;;5082390;28;20055;-82
2023/04/25 09:53:41;;;;;;;8.15;2.65;;;10.90;99.90;;;;;;5074846;28;20067;-82
2023/04/25 09:56:08;;;;;;;13.93;2.58;;;11.10;99.90;;;;;;5087325;28;20058;-82
2023/04/25 09:58:36;;;;;;;6.57;2.80;;;11.40;99.90;;;;;;5082860;28;20055;-84
2023/04/25 10:01:04;;;;;;;5.03;2.28;;;11.60;99.90;;;;;;5055371;28;20098;-86
2023/04/25 10:03:34;;;;;;;6.68;2.83;;;11.70;99.90;;;;;;5077930;28;20093;-86
2023/04/25 10:06:02;;;;;;;10.38;2.92;;;12.00;99.90;;;;;;5073891;28;20052;-86
2023/04/25 10:08:33;;;;;;;12.73;2.60;;;12.30;99.90;;;;;;5077297;28;20040;-86
2023/04/25 10:11:07;;;;;;;4.43;2.65;;;12.60;99.90;;;;;;5070569;28;20548;-86
2023/04/25 10:13:35;;;;;;;16.42;4.05;;;12.80;99.90;;;;;;5076000;28;20559;-85
2023/04/25 10:16:02;;;;;;;7.07;2.78;;;12.90;97.60;;;;;;5079324;28;20128;-81
2023/04/25 10:18:29;;;;;;;6.40;3.20;;;13.00;97.50;;;;;;5071066;28;20048;-81
2023/04/25 10:20:58;;;;;;;4.53;2.17;;;12.90;95.50;;;;;;5085397;28;20048;-81
2023/04/25 10:23:24;;;;;;;9.30;2.97;;;12.50;94.70;;;;;;5076653;28;20044;-79
2023/04/25 10:25:51;;;;;;;4.78;1.80;;;11.90;97.30;;;;;;5086860;28;20047;-78
2023/04/25 10:28:18;;;;;;;9.43;3.08;;;11.30;99.90;;;;;;5086701;28;20102;-79
2023/04/25 10:31:10;;;;;;;3.03;2.00;;;10.90;99.90;;;;;;5074863;28;20167;-79
2023/04/25 10:33:38;;;;;;;9.93;3.03;;;10.70;99.90;;;;;;5083806;28;20847;-80
2023/04/25 10:36:13;;;;;;;26.05;3.08;;;10.50;99.90;;;;;;5082816;28;20044;-80
2023/04/25 10:38:40;;;;;;;5.35;3.08;;;10.50;99.90;;;;;;5082152;28;21041;-80
2023/04/25 10:41:10;;;;;;;8.52;2.30;;;10.50;99.90;;;;;;5058385;28;20040;-80
2023/04/25 10:43:43;;;;;;;7.30;3.28;;;10.50;99.90;;;;;;5079474;28;20102;-80
2023/04/25 10:46:22;;;;;;;12.07;3.85;;;10.50;99.90;;;;;;5109865;27;20048;-79
2023/04/25 10:48:52;;;;;;;12.80;3.28;;;10.60;99.90;;;;;;5117228;27;20048;-80
2023/04/25 10:51:26;;;;;;;8.90;3.47;;;10.80;99.90;;;;;;5086616;28;20043;-80
2023/04/25 10:54:03;;;;;;;9.15;3.17;;;11.00;99.90;;;;;;5088050;28;20501;-80
2023/04/25 10:56:37;;;;;;;7.70;3.38;;;11.30;99.90;;;;;;5087175;28;20036;-81
2023/04/25 10:59:13;;;;;;;8.27;3.28;;;11.60;99.90;;;;;;5086452;28;20123;-80
2023/04/25 11:01:41;;;;;;;13.65;3.78;;;11.90;99.90;;;;;;5076047;28;20076;-81
2023/04/25 11:04:18;;;;;;;6.50;2.55;;;12.30;99.90;;;;;;5078874;28;20116;-81
2023/04/25 11:07:02;;;;;;;7.85;2.90;;;12.60;99.90;;;;;;5085132;28;20043;-82
2023/04/25 11:09:28;;;;;;;12.10;3.97;;;12.90;99.90;;;;;;5071247;28;20475;-81
2023/04/25 11:11:58;;;;;;;13.25;3.90;;;12.90;99.90;;;;;;5073485;28;20048;-82
2023/04/25 11:14:24;;;;;;;10.95;3.30;;;12.60;99.90;;;;;;5088419;28;20082;-81
2023/04/25 11:16:56;;;;;;;12.68;3.53;;;12.20;99.90;;;;;;5087613;28;20091;-83
2023/04/25 11:19:23;;;;;;;11.45;3.00;;;11.90;99.90;;;;;;5075860;28;20091;-79
2023/04/25 11:21:49;;;;;;;8.68;2.95;;;11.90;99.90;;;;;;5087713;28;20043;-78
2023/04/25 11:24:18;;;;;;;7.25;3.58;;;11.90;99.90;;;;;;5122483;27;20052;-79
2023/04/25 11:26:48;;;;;;;9.13;2.67;;;11.90;99.90;;;;;;5082826;28;20124;-79
2023/04/25 11:29:13;;;;;;;14.65;3.33;;;11.90;99.90;;;;;;5085879;28;20088;-80
2023/04/25 11:31:43;;;;;;;10.00;2.88;;;11.50;99.90;;;;;;5092070;28;20156;-76
2023/04/25 11:34:19;;;;;;;7.65;2.70;;;11.40;99.90;;;;;;5090788;28;20048;-75
2023/04/25 11:36:45;;;;;;;12.85;3.88;;;11.40;99.90;;;;;;5087459;28;20071;-75
2023/04/25 11:39:11;;;;;;;19.13;4.32;;;11.60;99.90;;;;;;5082147;28;20059;-74
2023/04/25 11:41:38;;;;;;;8.45;3.42;;;11.70;99.90;;;;;;5085248;28;20697;-74
2023/04/25 11:44:05;;;;;;;10.65;3.15;;;11.60;99.90;;;;;;5078603;28;20508;-74
2023/04/25 11:46:30;;;;;;;11.65;3.38;;;11.20;99.90;;;;;;5088063;28;20055;-76
2023/04/25 11:48:57;;;;;;;8.65;3.30;;;10.80;99.90;;;;;;5085786;28;20508;-76
2023/04/25 11:51:23;;;;;;;6.05;2.42;;;10.40;99.90;;;;;;5090729;28;20040;-76
2023/04/25 11:53:48;;;;;;;4.50;2.50;;;10.00;99.90;;;;;;5087140;28;20051;-76
2023/04/25 11:56:14;;;;;;;4.88;2.05;;;9.60;99.90;;;;;;5085753;28;20052;-76
2023/04/25 11:59:01;;;;;;;7.63;3.00;;;9.30;99.90;;;;;;5077912;28;20047;-72
2023/04/25 12:01:32;;;;;;;9.02;2.78;;;9.40;99.90;;;;;;5084195;28;20554;-72
2023/04/25 12:03:58;;;;;;;8.40;2.65;;;9.50;99.90;;;;;;5087407;28;20109;-72
2023/04/25 12:06:29;;;;;;;6.82;2.92;;;9.80;99.90;;;;;;5074276;28;20048;-72
2023/04/25 12:09:03;;;;;;;7.47;3.30;;;10.10;99.90;;;;;;5075010;28;20071;-71
2023/04/25 12:11:31;;;;;;;5.28;2.90;;;10.60;99.90;;;;;;5073489;28;20726;-71
2023/04/25 12:14:02;;;;;;;11.30;3.10;;;11.00;99.90;;;;;;5096763;28;20131;-71
2023/04/25 12:16:28;;;;;;;11.32;4.22;;;11.30;99.90;;;;;;5080348;28;20052;-71
2023/04/25 12:18:56;;;;;;;13.00;3.13;;;11.50;99.90;;;;;;5081378;28;20789;-71
2023/04/25 12:21:21;;;;;;;38.88;5.88;;;11.80;99.90;;;;;;5081957;28;20098;-71
2023/04/25 12:23:47;;;;;;;14.80;3.10;;;12.10;99.90;;;;;;5074809;28;20048;-71
2023/04/25 12:26:12;;;;;;;14.55;3.40;;;12.10;99.90;;;;;;5081934;28;20405;-71
2023/04/25 12:28:38;;;;;;;18.95;5.15;;;12.00;99.90;;;;;;5076227;28;20044;-72
2023/04/25 12:31:05;;;;;;;9.65;4.47;;;11.80;99.90;;;;;;5081806;28;20144;-71
2023/04/25 12:33:35;;;;;;;10.70;4.15;;;11.60;99.90;;;;;;5087289;28;20566;-71
2023/04/25 12:36:09;;;;;;;7.18;3.10;;;11.60;99.90;;;;;;5087699;28;20040;-71
2023/04/25 12:38:41;;;;;;;12.57;3.38;;;11.70;99.90;;;;;;5086434;28;20071;-71
2023/04/25 12:41:09;;;;;;;5.45;3.15;;;11.60;99.90;;;;;;5073280;28;20071;-71
2023/04/25 12:43:34;;;;;;;4.97;2.10;;;11.60;99.90;;;;;;5084799;28;20416;-72
2023/04/25 12:46:00;;;;;;;11.57;2.60;;;11.70;99.90;;;;;;5073251;28;20497;-72